Time;durP1;ratioP1;P1;durP2;ratioP2;P2;SDS_P1;SDS_P2;PMS_P1;PMS_P2;Temp;Humidity;BMP_temperature;BMP_pressure;BME280_temperature;BME280_humidity;BME280_pressure;Samples;Min_cycle;Max_cycle;Signal;HPM_P1;HPM_P2
2021/07/01 00:00:09;;;;;;;15.63;8.27;;;;;;;13.79;89.76;101498.22;5075766;28;20021;-40
2021/07/01 00:02:34;;;;;;;13.90;8.63;;;;;;;13.80;89.68;101508.03;5075586;28;20020;-40
2021/07/01 00:04:59;;;;;;;12.63;8.87;;;;;;;13.80;89.56;101501.78;5076008;28;20034;-40
2021/07/01 00:07:25;;;;;;;16.47;9.37;;;;;;;13.78;89.70;101501.19;5075589;28;20027;-40
2021/07/01 00:09:50;;;;;;;13.07;9.03;;;;;;;13.77;89.85;101502.25;5075916;28;20247;-40
2021/07/01 00:12:15;;;;;;;16.57;8.63;;;;;;;13.77;89.75;101500.38;5075760;28;20070;-40
2021/07/01 00:14:41;;;;;;;13.30;8.87;;;;;;;13.77;89.62;101500.38;5075706;28;20430;-40
2021/07/01 00:17:06;;;;;;;15.07;8.80;;;;;;;13.77;89.55;101500.38;5075452;28;20274;-40
2021/07/01 00:19:31;;;;;;;12.43;7.93;;;;;;;13.78;89.45;101493.03;5076181;28;20033;-40
2021/07/01 00:21:57;;;;;;;15.60;8.60;;;;;;;13.75;89.57;101498.94;5075416;28;20595;-40
2021/07/01 00:24:22;;;;;;;13.63;8.73;;;;;;;13.71;89.57;101497.75;5075390;28;20286;-40
2021/07/01 00:26:47;;;;;;;13.97;8.13;;;;;;;13.70;89.56;101494.22;5075853;28;20429;-40
2021/07/01 00:29:13;;;;;;;16.58;8.48;;;;;;;13.73;89.51;101495.63;5075669;28;20024;-40
2021/07/01 00:31:38;;;;;;;15.52;9.93;;;;;;;13.69;89.72;101494.44;5075188;28;20024;-40
2021/07/01 00:34:04;;;;;;;20.23;8.80;;;;;;;13.72;89.77;101494.00;5075033;28;20047;-40
2021/07/01 00:36:30;;;;;;;13.98;7.85;;;;;;;13.73;89.61;101495.63;5075664;28;20056;-40
2021/07/01 00:38:55;;;;;;;13.52;9.18;;;;;;;13.72;89.66;101500.25;5074919;28;20025;-40
2021/07/01 00:41:20;;;;;;;16.98;9.50;;;;;;;13.71;89.55;101495.84;5074711;28;20031;-40
2021/07/01 00:43:47;;;;;;;16.98;9.15;;;;;;;13.70;89.54;101502.34;5074898;28;20026;-40
2021/07/01 00:46:12;;;;;;;;;;;;;;;13.78;89.06;101498.47;5073763;28;20066;-40
2021/07/01 00:48:38;;;;;;;15.82;9.18;;;;;;;13.70;89.38;101502.34;5074794;28;19905;-41
2021/07/01 00:51:04;;;;;;;18.57;9.33;;;;;;;13.70;89.61;101498.81;5074823;28;20456;-40
2021/07/01 00:53:29;;;;;;;17.65;9.48;;;;;;;13.68;89.67;101492.81;5074572;28;20287;-40
2021/07/01 00:55:55;;;;;;;16.17;8.93;;;;;;;13.68;89.73;101498.25;5074676;28;20064;-40
2021/07/01 00:58:21;;;;;;;14.65;8.98;;;;;;;13.68;89.67;101498.25;5074607;28;20020;-40
2021/07/01 01:01:02;;;;;;;22.27;10.02;;;;;;;13.64;89.53;101493.25;5074895;28;20023;-40
2021/07/01 01:03:29;;;;;;;18.00;9.02;;;;;;;13.63;89.41;101496.22;5074487;28;20075;-40
2021/07/01 01:05:55;;;;;;;16.63;8.57;;;;;;;13.62;89.68;101498.13;5074759;28;20028;-40
2021/07/01 01:08:21;;;;;;;16.88;9.88;;;;;;;13.63;89.90;101498.94;5074426;28;20028;-40
2021/07/01 01:10:46;;;;;;;21.92;9.38;;;;;;;13.61;89.85;101509.19;5074317;28;20029;-40
2021/07/01 01:13:23;;;;;;;17.77;8.60;;;;;;;13.63;89.40;101499.78;5074228;28;20027;-40
2021/07/01 01:15:49;;;;;;;19.35;9.35;;;;;;;13.61;89.80;101495.63;5074966;28;20283;-40
2021/07/01 01:18:14;;;;;;;25.95;9.27;;;;;;;13.62;89.66;101500.84;5073959;28;20066;-40
2021/07/01 01:20:39;;;;;;;23.00;9.17;;;;;;;13.59;89.70;101493.16;5074052;28;20028;-40
2021/07/01 01:23:05;;;;;;;19.23;8.63;;;;;;;13.59;89.56;101504.00;5073877;28;20024;-40
2021/07/01 01:25:30;;;;;;;18.27;9.10;;;;;;;13.60;89.45;101502.13;5074791;28;20101;-40
2021/07/01 01:27:55;;;;;;;19.17;9.00;;;;;;;13.60;89.23;101500.22;5074181;28;20067;-40
2021/07/01 01:30:21;;;;;;;18.67;8.80;;;;;;;13.62;89.27;101511.72;5074137;28;20250;-40
2021/07/01 01:32:46;;;;;;;18.98;8.60;;;;;;;13.56;89.35;101504.47;5073927;28;20021;-40
2021/07/01 01:35:11;;;;;;;15.77;7.80;;;;;;;13.53;89.59;101502.25;5074085;28;20063;-40
2021/07/01 01:37:37;;;;;;;18.13;8.73;;;;;;;13.56;89.54;101503.66;5074042;28;20028;-40
2021/07/01 01:40:03;;;;;;;14.30;8.50;;;;;;;13.53;89.38;101502.25;5073751;28;20258;-40
2021/07/01 01:42:28;;;;;;;17.48;8.05;;;;;;;13.57;89.29;101503.44;5074033;28;20032;-40
2021/07/01 01:44:53;;;;;;;17.97;8.07;;;;;;;13.58;89.59;101498.81;5073855;28;20048;-40
2021/07/01 01:47:21;;;;;;;19.07;9.20;;;;;;;13.57;89.58;101503.44;5073785;28;20407;-40
2021/07/01 01:49:48;;;;;;;18.10;9.13;;;;;;;13.51;89.69;101493.47;5073694;28;20028;-40
2021/07/01 01:52:13;;;;;;;17.83;8.20;;;;;;;13.53;89.77;101501.41;5073327;28;20466;-40
2021/07/01 01:54:39;;;;;;;15.65;8.35;;;;;;;13.56;89.59;101509.09;5073961;28;20046;-40
2021/07/01 01:57:05;;;;;;;22.25;8.52;;;;;;;13.50;89.66;101505.41;5073630;28;20079;-40
2021/07/01 01:59:30;;;;;;;17.60;7.90;;;;;;;13.54;89.03;101506.59;5073812;28;20052;-40
2021/07/01 02:01:55;;;;;;;14.40;7.67;;;;;;;13.46;89.27;101501.50;5074118;28;20024;-40
2021/07/01 02:04:21;;;;;;;13.15;7.70;;;;;;;13.49;89.45;101506.47;5073532;28;20411;-40
2021/07/01 02:06:46;;;;;;;15.20;7.63;;;;;;;13.47;89.30;101500.47;5073317;28;20025;-40
2021/07/01 02:09:11;;;;;;;15.90;8.07;;;;;;;13.45;89.66;101501.75;5073450;28;20028;-40
2021/07/01 02:11:37;;;;;;;18.23;8.02;;;;;;;13.48;89.50;101504.00;5074061;28;20024;-40
2021/07/01 02:14:02;;;;;;;17.43;8.47;;;;;;;13.48;89.54;101510.28;5073551;28;20021;-40
2021/07/01 02:16:28;;;;;;;16.17;7.50;;;;;;;13.49;89.52;101509.19;5074636;28;20056;-40
2021/07/01 02:18:54;;;;;;;18.80;8.02;;;;;;;13.40;89.27;101492.41;5073009;28;20294;-40
2021/07/01 02:21:19;;;;;;;14.77;6.80;;;;;;;13.45;89.13;101499.03;5073694;28;20024;-41
2021/07/01 02:23:45;;;;;;;16.90;7.05;;;;;;;13.45;89.33;101504.47;5073337;28;20028;-40
2021/07/01 02:26:10;;;;;;;16.80;7.67;;;;;;;13.43;89.26;101506.59;5073615;28;20024;-40
2021/07/01 02:28:35;;;;;;;17.70;8.20;;;;;;;13.46;89.32;101501.50;5073578;28;20270;-40
2021/07/01 02:31:01;;;;;;;17.35;7.20;;;;;;;13.40;89.27;101506.00;5073818;28;20247;-40
2021/07/01 02:33:26;;;;;;;18.00;7.60;;;;;;;13.40;89.60;101491.59;5073357;28;20024;-40
2021/07/01 02:35:52;;;;;;;16.30;7.57;;;;;;;13.45;89.60;101499.03;5073901;28;20115;-40
2021/07/01 02:38:19;;;;;;;16.08;8.07;;;;;;;13.42;89.53;101494.91;5073457;28;20020;-40
2021/07/01 02:40:44;;;;;;;15.35;8.18;;;;;;;13.42;89.58;101484.03;5073764;28;20103;-40
2021/07/01 02:43:09;;;;;;;18.20;8.97;;;;;;;13.47;89.18;101492.31;5073412;28;20165;-40
2021/07/01 02:45:35;;;;;;;16.97;9.37;;;;;;;13.47;89.68;101496.91;5073141;28;20337;-40
2021/07/01 02:48:00;;;;;;;19.75;10.07;;;;;;;13.50;89.58;101496.44;5073951;28;20035;-40
2021/07/01 02:50:26;;;;;;;17.52;9.52;;;;;;;13.45;89.57;101489.00;5076313;28;20031;-40
2021/07/01 02:52:51;;;;;;;19.10;10.10;;;;;;;13.42;89.92;101494.91;5077404;28;20025;-40
2021/07/01 02:55:17;;;;;;;20.83;11.38;;;;;;;13.44;89.78;101495.50;5077872;28;20043;-40
2021/07/01 02:57:42;;;;;;;24.05;11.95;;;;;;;13.44;89.69;101502.81;5077047;28;20024;-40
2021/07/01 03:00:11;;;;;;;23.20;11.75;;;;;;;13.38;89.87;101499.97;5077724;28;20028;-40
2021/07/01 03:02:36;;;;;;;21.55;12.48;;;;;;;13.40;89.86;101491.59;5077081;28;20095;-40
2021/07/01 03:05:03;;;;;;;25.50;12.90;;;;;;;13.42;89.92;101499.50;5076494;28;20536;-40
2021/07/01 03:07:29;;;;;;;24.08;13.25;;;;;;;13.41;90.12;101495.94;5076656;28;20052;-40
2021/07/01 03:09:54;;;;;;;26.07;13.53;;;;;;;13.42;90.15;101494.91;5076689;28;20054;-40
2021/07/01 03:12:19;;;;;;;23.48;13.45;;;;;;;13.44;90.26;101500.09;5076805;28;20278;-40
2021/07/01 03:14:45;;;;;;;22.00;13.07;;;;;;;13.36;90.78;101498.53;5076862;28;20547;-40
2021/07/01 03:17:10;;;;;;;28.23;13.77;;;;;;;13.36;90.45;101495.81;5076613;28;20479;-40
2021/07/01 03:19:35;;;;;;;23.80;14.23;;;;;;;13.41;90.31;101498.66;5076370;28;20456;-40
2021/07/01 03:22:01;;;;;;;23.60;12.53;;;;;;;13.39;90.48;101506.22;5077109;28;20028;-40
2021/07/01 03:24:26;;;;;;;22.63;13.20;;;;;;;13.37;90.24;101501.03;5076497;28;20017;-40
2021/07/01 03:26:51;;;;;;;27.47;14.00;;;;;;;13.34;90.39;101508.81;5077098;28;20029;-40
2021/07/01 03:29:17;;;;;;;22.52;12.88;;;;;;;13.38;90.18;101504.59;5076406;28;20028;-40
2021/07/01 03:31:42;;;;;;;23.87;12.87;;;;;;;13.37;90.05;101508.34;5076391;28;20463;-40
2021/07/01 03:34:08;;;;;;;20.90;12.98;;;;;;;13.37;90.05;101511.91;5076249;28;20107;-40
2021/07/01 03:36:33;;;;;;;24.53;13.13;;;;;;;13.37;90.00;101501.03;5076535;28;20360;-40
2021/07/01 03:39:02;;;;;;;26.95;13.90;;;;;;;13.34;90.32;101503.41;5075940;28;20075;-40
2021/07/01 03:41:29;;;;;;;23.25;13.60;;;;;;;13.36;90.00;101512.13;5076209;28;20035;-40
2021/07/01 03:43:55;;;;;;;23.75;13.63;;;;;;;13.36;90.44;101509.41;5074787;28;20040;-40
2021/07/01 03:46:20;;;;;;;24.77;13.27;;;;;;;13.36;90.20;101501.25;5075853;28;20048;-40
2021/07/01 03:48:45;;;;;;;23.47;13.07;;;;;;;13.41;89.98;101512.25;5076305;28;20090;-40
2021/07/01 03:51:11;;;;;;;23.33;12.57;;;;;;;13.39;90.20;101511.66;5076059;28;20020;-41
2021/07/01 03:53:36;;;;;;;20.57;14.07;;;;;;;13.43;90.01;101510.16;5075918;28;20294;-40
2021/07/01 03:56:02;;;;;;;27.23;13.33;;;;;;;13.39;90.09;101519.81;5075602;28;20027;-40
2021/07/01 03:58:27;;;;;;;20.38;13.32;;;;;;;13.38;90.10;101507.31;5076065;28;20024;-40
2021/07/01 04:00:53;;;;;;;21.45;12.77;;;;;;;13.42;90.02;101513.94;5075461;28;20355;-40
2021/07/01 04:03:18;;;;;;;25.27;13.13;;;;;;;13.39;89.91;101508.94;5075413;28;20089;-40
2021/07/01 04:05:44;;;;;;;26.15;12.90;;;;;;;13.37;90.02;101503.75;5075678;28;20119;-40
2021/07/01 04:08:09;;;;;;;21.70;11.07;;;;;;;13.32;89.93;101498.19;5075700;28;20029;-41
2021/07/01 04:10:34;;;;;;;20.90;12.18;;;;;;;13.34;90.26;101511.53;5075912;28;20047;-40
2021/07/01 04:13:00;;;;;;;20.63;11.63;;;;;;;13.33;90.30;101505.28;5075859;28;20107;-40
2021/07/01 04:15:26;;;;;;;19.58;11.38;;;;;;;13.32;89.54;101516.38;5076126;28;20054;-40
2021/07/01 04:17:51;;;;;;;19.73;10.13;;;;;;;13.28;89.68;101517.91;5075801;28;20028;-40
2021/07/01 04:20:18;;;;;;;21.40;10.65;;;;;;;13.31;89.57;101514.72;5076040;28;20441;-40
2021/07/01 04:22:43;;;;;;;21.58;10.88;;;;;;;13.32;89.53;101517.22;5075437;28;20055;-40
2021/07/01 04:25:09;;;;;;;17.53;10.20;;;;;;;13.32;89.40;101513.66;5075645;28;20452;-40
2021/07/01 04:27:34;;;;;;;16.25;10.10;;;;;;;13.30;89.29;101513.88;5074929;28;20116;-40
2021/07/01 04:30:00;;;;;;;17.87;10.40;;;;;;;13.30;88.98;101513.88;5075517;28;20033;-40
2021/07/01 04:32:26;;;;;;;21.52;10.75;;;;;;;13.25;88.90;101521.09;5074798;28;20278;-40
2021/07/01 04:34:51;;;;;;;20.20;9.63;;;;;;;13.26;88.95;101523.56;5075722;28;20028;-40
2021/07/01 04:37:16;;;;;;;23.07;10.33;;;;;;;13.26;89.29;101520.00;5075309;28;20093;-40
2021/07/01 04:39:41;;;;;;;15.53;9.47;;;;;;;13.28;88.95;101528.78;5075878;28;20020;-40
2021/07/01 04:42:07;;;;;;;18.13;9.83;;;;;;;13.26;88.59;101528.16;5075340;28;20025;-40
2021/07/01 04:44:33;;;;;;;20.98;10.10;;;;;;;13.25;89.07;101523.78;5075506;28;20047;-40
2021/07/01 04:46:58;;;;;;;19.85;10.32;;;;;;;13.24;88.96;101522.16;5074860;28;20032;-40
2021/07/01 04:49:24;;;;;;;16.48;8.52;;;;;;;13.26;88.65;101531.69;5074857;28;20029;-40
2021/07/01 04:51:49;;;;;;;16.63;8.80;;;;;;;13.25;88.41;101526.50;5075710;28;20020;-40
2021/07/01 04:54:14;;;;;;;16.60;8.43;;;;;;;13.25;88.63;101521.09;5075213;28;20031;-40
2021/07/01 04:56:46;;;;;;;24.13;9.50;;;;;;;13.22;88.35;101525.06;5075030;28;20021;-40
2021/07/01 04:59:12;;;;;;;16.48;8.68;;;;;;;13.26;88.64;101528.16;5075454;28;20281;-40
2021/07/01 05:01:38;;;;;;;17.45;8.18;;;;;;;13.23;88.31;101524.03;5074887;28;20020;-40
2021/07/01 05:04:06;;;;;;;14.30;7.80;;;;;;;13.23;88.29;101526.75;5074576;28;20112;-40
2021/07/01 05:06:31;;;;;;;17.65;7.47;;;;;;;13.22;88.20;101521.53;5074330;28;20081;-40
2021/07/01 05:08:57;;;;;;;14.33;8.13;;;;;;;13.24;87.94;101530.28;5074509;28;20367;-40
2021/07/01 05:11:22;;;;;;;18.33;7.57;;;;;;;13.23;87.92;101534.06;5075037;28;20016;-40
2021/07/01 05:13:47;;;;;;;14.03;7.10;;;;;;;13.21;87.48;101528.81;5073702;28;20028;-40
2021/07/01 05:16:12;;;;;;;17.67;7.93;;;;;;;13.24;88.02;101533.84;5074791;28;20452;-40
2021/07/01 05:18:38;;;;;;;13.77;7.43;;;;;;;13.15;87.84;101527.88;5074590;28;20021;-40
2021/07/01 05:21:03;;;;;;;17.13;7.10;;;;;;;13.17;88.08;101530.34;5074821;28;20353;-40
2021/07/01 05:23:28;;;;;;;15.27;7.87;;;;;;;13.16;87.77;101525.97;5074221;28;20497;-40
2021/07/01 05:25:54;;;;;;;15.67;7.43;;;;;;;13.18;87.88;101528.47;5074660;28;20427;-40
2021/07/01 05:28:19;;;;;;;18.00;8.10;;;;;;;13.24;88.02;101528.41;5073757;28;20086;-40
2021/07/01 05:30:44;;;;;;;14.90;7.50;;;;;;;13.24;87.83;101530.28;5074364;28;20027;-40
2021/07/01 05:33:10;;;;;;;13.50;7.45;;;;;;;13.25;87.54;101527.34;5073938;28;20161;-40
2021/07/01 05:35:35;;;;;;;14.80;7.77;;;;;;;13.26;87.53;101525.44;5073705;28;20428;-40
2021/07/01 05:38:01;;;;;;;12.33;6.80;;;;;;;13.27;87.39;101525.19;5073863;28;20312;-40
2021/07/01 05:40:26;;;;;;;15.73;7.10;;;;;;;13.29;87.42;101527.72;5074175;28;20258;-40
2021/07/01 05:42:52;;;;;;;11.60;6.45;;;;;;;13.31;87.41;101525.56;5073797;28;20275;-40
2021/07/01 05:45:17;;;;;;;15.23;7.43;;;;;;;13.36;87.61;101531.13;5074474;28;20020;-40
2021/07/01 05:47:43;;;;;;;12.52;7.18;;;;;;;13.37;87.68;101514.63;5073779;28;20028;-40
2021/07/01 05:50:10;;;;;;;13.05;7.20;;;;;;;13.34;87.56;101520.50;5073829;28;20112;-40
2021/07/01 05:52:38;;;;;;;14.70;6.93;;;;;;;13.37;87.63;101521.91;5073288;28;20021;-40
2021/07/01 05:55:05;;;;;;;13.90;6.60;;;;;;;13.43;88.40;101525.63;5074467;28;20058;-40
2021/07/01 05:57:30;;;;;;;;;;;;;;;13.51;87.55;101523.38;5073749;28;20356;-41
2021/07/01 05:59:55;;;;;;;13.87;7.90;;;;;;;13.42;88.04;101522.06;5073885;28;19911;-40
2021/07/01 06:02:22;;;;;;;14.85;7.60;;;;;;;13.40;88.14;101519.56;5074309;28;20719;-40
2021/07/01 06:04:47;;;;;;;16.13;8.13;;;;;;;13.42;87.95;101527.50;5073551;28;20020;-40
2021/07/01 06:07:31;;;;;;;14.30;7.87;;;;;;;13.45;87.96;101523.47;5073528;28;20077;-41
2021/07/01 06:10:00;;;;;;;14.43;7.63;;;;;;;13.46;87.56;101528.69;5073756;28;20328;-39
2021/07/01 06:12:30;;;;;;;13.43;7.57;;;;;;;13.45;88.50;101526.19;5073102;28;20052;-39
2021/07/01 06:14:58;;;;;;;13.02;8.35;;;;;;;13.43;88.00;101526.44;5073739;28;20123;-43
2021/07/01 06:17:28;;;;;;;12.90;7.82;;;;;;;13.43;88.22;101534.59;5073311;28;20111;-40
2021/07/01 06:19:53;;;;;;;15.65;7.90;;;;;;;13.48;88.08;101537.44;5073888;28;20029;-39
2021/07/01 06:22:21;;;;;;;15.52;8.32;;;;;;;13.55;87.91;101540.03;5073324;28;20070;-39
2021/07/01 06:24:54;;;;;;;15.70;8.00;;;;;;;13.43;88.01;101529.16;5073851;28;20058;-39
2021/07/01 06:27:26;;;;;;;15.98;7.95;;;;;;;13.44;87.96;101528.09;5073298;28;20109;-39
2021/07/01 06:29:53;;;;;;;13.88;8.07;;;;;;;13.51;88.25;101534.25;5073271;28;20028;-39
2021/07/01 06:32:18;;;;;;;15.68;8.05;;;;;;;13.49;87.38;101530.94;5072853;28;20024;-39
2021/07/01 06:34:44;;;;;;;14.40;6.97;;;;;;;13.47;88.01;101529.50;5073040;28;20023;-39
2021/07/01 06:37:12;;;;;;;12.68;7.40;;;;;;;13.51;87.70;101531.53;5073255;28;20021;-39
2021/07/01 06:39:42;;;;;;;16.05;7.63;;;;;;;13.51;87.63;101534.25;5072713;28;20412;-39
2021/07/01 06:42:09;;;;;;;15.15;8.05;;;;;;;13.49;87.04;101530.13;5072938;28;20020;-40
2021/07/01 06:44:38;;;;;;;18.85;7.75;;;;;;;13.52;87.49;101533.19;5073954;28;20082;-39
2021/07/01 06:47:03;;;;;;;18.42;8.43;;;;;;;13.56;87.80;101533.53;5073464;28;20070;-39
2021/07/01 06:49:32;;;;;;;15.15;8.18;;;;;;;13.60;87.55;101530.13;5072773;28;20024;-40
2021/07/01 06:51:58;;;;;;;16.08;7.18;;;;;;;13.63;87.41;101534.28;5073166;28;20067;-40
2021/07/01 06:54:24;;;;;;;;;;;;;;;13.77;87.03;101534.88;5073400;28;20082;-40
2021/07/01 06:56:51;;;;;;;15.23;7.88;;;;;;;13.60;87.28;101538.28;5073012;28;19909;-40
2021/07/01 06:59:18;;;;;;;15.68;8.00;;;;;;;13.64;87.55;101542.19;5073228;28;20104;-40
2021/07/01 07:01:44;;;;;;;14.18;8.40;;;;;;;13.58;87.62;101548.56;5073593;28;20163;-40
2021/07/01 07:04:10;;;;;;;15.30;7.95;;;;;;;13.56;87.53;101538.97;5072623;28;20036;-40
2021/07/01 07:06:38;;;;;;;15.02;7.35;;;;;;;13.63;87.38;101540.53;5073495;28;20429;-40
2021/07/01 07:09:04;;;;;;;16.70;7.78;;;;;;;13.64;87.47;101541.34;5073153;28;20401;-40
2021/07/01 07:11:32;;;;;;;17.13;8.68;;;;;;;13.65;87.35;101538.41;5072487;28;20032;-40
2021/07/01 07:13:57;;;;;;;15.32;7.82;;;;;;;13.68;87.85;101547.16;5072772;28;20360;-40
2021/07/01 07:16:23;;;;;;;14.33;8.17;;;;;;;13.70;87.68;101545.03;5073672;28;20131;-40
2021/07/01 07:18:49;;;;;;;13.57;8.13;;;;;;;13.73;88.01;101545.38;5072545;28;20274;-40
2021/07/01 07:21:19;;;;;;;16.65;8.60;;;;;;;13.75;88.25;101540.53;5072470;28;20258;-40
2021/07/01 07:23:55;;;;;;;15.27;7.63;;;;;;;13.85;87.55;101548.94;5073008;28;20415;-40
2021/07/01 07:26:24;;;;;;;12.32;7.40;;;;;;;13.83;87.24;101542.09;5072472;28;20020;-40
2021/07/01 07:28:52;;;;;;;15.50;8.05;;;;;;;13.83;87.22;101552.97;5072649;28;20024;-40
2021/07/01 07:31:24;;;;;;;13.30;7.10;;;;;;;13.89;86.78;101554.72;5073224;28;20025;-40
2021/07/01 07:33:53;;;;;;;14.20;7.85;;;;;;;13.92;86.57;101554.28;5073245;28;20413;-40
2021/07/01 07:36:20;;;;;;;16.48;7.75;;;;;;;13.95;86.85;101542.91;5073712;28;20139;-40
2021/07/01 07:38:46;;;;;;;15.50;7.85;;;;;;;14.04;87.56;101548.81;5076106;28;20024;-40
2021/07/01 07:41:14;;;;;;;18.98;9.25;;;;;;;14.10;86.38;101548.72;5076272;28;20024;-40
2021/07/01 07:43:41;;;;;;;15.45;7.50;;;;;;;14.09;87.33;101544.31;5076054;28;20020;-40
2021/07/01 07:46:06;;;;;;;18.33;8.15;;;;;;;14.17;86.36;101554.03;5076328;28;20024;-40
2021/07/01 07:48:32;;;;;;;12.57;7.40;;;;;;;14.15;85.57;101548.84;5076776;28;20151;-40
2021/07/01 07:51:00;;;;;;;17.47;8.00;;;;;;;14.17;85.74;101554.03;5076526;28;20028;-40
2021/07/01 07:53:30;;;;;;;14.48;8.38;;;;;;;14.15;85.73;101556.13;5075779;28;20021;-40
2021/07/01 07:56:07;;;;;;;13.02;7.07;;;;;;;14.16;86.12;101555.09;5076177;28;20107;-40
2021/07/01 07:58:37;;;;;;;12.10;7.10;;;;;;;14.12;85.04;101557.47;5075913;28;20024;-40
2021/07/01 08:01:03;;;;;;;14.93;6.88;;;;;;;14.12;85.43;101559.34;5075751;28;20031;-40
2021/07/01 08:03:32;;;;;;;12.43;7.13;;;;;;;14.07;85.03;101557.34;5075815;28;20032;-41
2021/07/01 08:05:59;;;;;;;13.32;6.90;;;;;;;14.02;86.07;101554.50;5076569;28;20078;-41
2021/07/01 08:08:25;;;;;;;14.48;7.70;;;;;;;14.02;85.85;101556.41;5076134;28;20025;-40
2021/07/01 08:10:51;;;;;;;15.70;7.18;;;;;;;14.01;85.43;101554.75;5075617;28;20445;-41
2021/07/01 08:13:19;;;;;;;;;;;;;;;14.10;85.44;101556.03;5075929;28;20410;-39
2021/07/01 08:15:45;;;;;;;15.30;6.97;;;;;;;14.02;85.39;101556.41;5075954;28;20296;-39
2021/07/01 08:18:20;;;;;;;11.15;6.45;;;;;;;13.99;85.37;101554.16;5075185;28;20056;-39
2021/07/01 08:20:46;;;;;;;13.25;7.00;;;;;;;13.99;86.32;101551.44;5075718;28;20032;-39
2021/07/01 08:23:13;;;;;;;11.03;5.33;;;;;;;14.04;85.59;101552.38;5075136;28;20024;-39
2021/07/01 08:25:38;;;;;;;10.45;6.07;;;;;;;14.00;85.12;101556.63;5075084;28;20035;-40
2021/07/01 08:28:04;;;;;;;10.63;5.75;;;;;;;13.97;84.59;101553.56;5075847;28;20353;-40
2021/07/01 08:30:29;;;;;;;13.40;6.43;;;;;;;13.96;85.50;101550.03;5075271;28;20025;-40
2021/07/01 08:32:57;;;;;;;11.90;5.28;;;;;;;14.03;85.27;101561.59;5074865;28;20021;-40
2021/07/01 08:35:24;;;;;;;12.38;5.75;;;;;;;14.04;85.12;101557.81;5075114;28;20058;-40
2021/07/01 08:37:51;;;;;;;12.02;6.03;;;;;;;14.02;85.72;101559.13;5075575;28;20479;-40
2021/07/01 08:40:18;;;;;;;10.75;6.10;;;;;;;14.08;86.04;101556.28;5075120;28;20074;-39
2021/07/01 08:42:45;;;;;;;15.00;6.88;;;;;;;14.11;85.39;101572.13;5074994;28;20103;-39
2021/07/01 08:45:11;;;;;;;;;;;;;;;14.22;85.06;101573.19;5075658;28;20031;-39
2021/07/01 08:47:40;;;;;;;11.60;6.30;;;;;;;14.13;85.98;101572.72;5074224;28;19994;-40
2021/07/01 08:50:10;;;;;;;11.88;6.57;;;;;;;14.13;85.67;101588.19;5074767;28;20025;-40
2021/07/01 08:52:57;;;;;;;12.65;6.47;;;;;;;14.08;85.39;101580.75;5075245;28;20040;-40
2021/07/01 08:55:26;;;;;;;14.02;6.45;;;;;;;14.08;85.07;101586.19;5075105;28;20031;-40
2021/07/01 08:57:54;;;;;;;10.85;5.82;;;;;;;14.08;85.54;101580.75;5074290;28;20075;-41
2021/07/01 09:00:19;;;;;;;15.70;7.20;;;;;;;14.10;86.00;101585.94;5074844;28;20464;-40
2021/07/01 09:03:01;;;;;;;13.65;6.47;;;;;;;14.11;86.51;101588.44;5074536;28;20103;-40
2021/07/01 09:05:28;;;;;;;12.30;6.57;;;;;;;14.03;86.26;101577.91;5074879;28;20028;-40
2021/07/01 09:07:54;;;;;;;17.15;6.90;;;;;;;14.03;85.98;101583.34;5074729;28;20036;-40
2021/07/01 09:10:21;;;;;;;12.17;6.80;;;;;;;14.02;86.22;101581.69;5074258;28;20016;-40
2021/07/01 09:12:55;;;;;;;15.10;7.15;;;;;;;14.00;86.70;101582.97;5073237;28;20755;-40
2021/07/01 09:15:21;;;;;;;14.27;6.78;;;;;;;13.99;86.69;101575.91;5074644;28;20093;-41
2021/07/01 09:17:51;;;;;;;17.70;7.40;;;;;;;13.97;86.61;101575.31;5074498;28;20016;-40
2021/07/01 09:20:20;;;;;;;11.48;6.53;;;;;;;14.01;87.26;101577.34;5074988;28;20047;-40
2021/07/01 09:22:53;;;;;;;12.23;6.90;;;;;;;14.04;87.27;101587.72;5073841;28;20492;-40
2021/07/01 09:25:20;;;;;;;11.65;6.47;;;;;;;13.98;86.66;101579.69;5074969;28;20028;-40
2021/07/01 09:27:48;;;;;;;12.85;6.68;;;;;;;14.02;87.34;101580.88;5074060;28;20025;-40
2021/07/01 09:30:16;;;;;;;14.38;6.93;;;;;;;14.04;87.51;101585.00;5073776;28;20099;-40
2021/07/01 09:32:43;;;;;;;10.77;6.28;;;;;;;14.01;86.53;101582.78;5074101;28;20146;-40
2021/07/01 09:35:11;;;;;;;9.65;6.25;;;;;;;14.03;86.85;101583.34;5074512;28;20074;-40
2021/07/01 09:37:47;;;;;;;15.57;7.03;;;;;;;14.06;87.05;101576.63;5074105;28;20405;-40
2021/07/01 09:40:18;;;;;;;14.40;6.80;;;;;;;14.08;87.10;101585.38;5074471;28;20373;-40
2021/07/01 09:42:50;;;;;;;13.18;6.45;;;;;;;14.11;86.99;101580.28;5073884;28;20020;-41
2021/07/01 09:45:15;;;;;;;11.68;6.95;;;;;;;14.10;86.44;101577.78;5073871;28;20372;-40
2021/07/01 09:47:45;;;;;;;13.77;6.43;;;;;;;14.11;86.85;101585.72;5073843;28;20024;-40
2021/07/01 09:50:11;;;;;;;17.38;6.38;;;;;;;14.09;86.29;101587.84;5073717;28;20259;-40
2021/07/01 09:52:42;;;;;;;13.25;7.05;;;;;;;14.05;87.92;101592.09;5073667;28;20031;-40
2021/07/01 09:55:09;;;;;;;15.02;7.32;;;;;;;14.13;87.09;101599.09;5073968;28;20111;-40
2021/07/01 09:57:44;;;;;;;13.43;6.85;;;;;;;14.11;86.74;101591.16;5074112;28;20352;-40
2021/07/01 10:00:11;;;;;;;12.10;7.32;;;;;;;14.13;86.72;101596.34;5073192;28;20023;-40
2021/07/01 10:02:38;;;;;;;13.52;6.60;;;;;;;14.15;86.69;101600.50;5073784;28;20025;-40
2021/07/01 10:05:08;;;;;;;18.02;7.60;;;;;;;14.19;87.34;101600.84;5073585;28;20029;-40
2021/07/01 10:07:34;;;;;;;11.73;6.70;;;;;;;14.20;87.06;101601.66;5073151;28;20025;-40
2021/07/01 10:10:11;;;;;;;15.10;6.95;;;;;;;14.28;87.11;101601.31;5074052;28;20024;-40
2021/07/01 10:12:50;;;;;;;13.88;6.93;;;;;;;14.20;86.83;101599.81;5073828;28;20051;-40
2021/07/01 10:15:51;;;;;;;17.73;8.05;;;;;;;14.32;86.86;101605.22;5073361;28;20044;-40
2021/07/01 10:18:22;;;;;;;12.60;7.22;;;;;;;14.28;86.49;101612.22;5030802;28;20037;-40
2021/07/01 10:20:51;;;;;;;12.80;6.50;;;;;;;14.28;87.09;101604.03;5031249;28;20038;-40
2021/07/01 10:23:23;;;;;;;10.73;5.88;;;;;;;14.29;86.34;101603.78;5030649;28;20462;-40
2021/07/01 10:25:52;;;;;;;14.00;6.70;;;;;;;14.25;86.56;101596.34;5030685;28;20033;-40
2021/07/01 10:28:22;;;;;;;12.43;5.60;;;;;;;14.33;86.33;101606.88;5028815;28;20109;-40
2021/07/01 10:31:05;;;;;;;12.65;6.20;;;;;;;14.26;86.34;101601.56;5030108;28;20021;-40
2021/07/01 10:33:37;;;;;;;11.45;6.75;;;;;;;14.32;86.10;101610.66;5031388;28;20061;-40
2021/07/01 10:36:05;;;;;;;14.57;7.03;;;;;;;14.25;86.25;101618.09;5030605;28;20083;-40
2021/07/01 10:38:43;;;;;;;13.18;6.93;;;;;;;14.35;85.93;101610.22;5030463;28;20060;-40
2021/07/01 10:41:09;;;;;;;11.95;6.32;;;;;;;14.31;86.00;101609.03;5030799;28;20069;-40
2021/07/01 10:43:40;;;;;;;15.63;7.07;;;;;;;14.33;87.01;101609.59;5031518;28;20068;-40
2021/07/01 10:46:06;;;;;;;12.68;6.38;;;;;;;14.31;86.50;101617.19;5030811;28;20029;-40
2021/07/01 10:48:31;;;;;;;14.67;6.50;;;;;;;14.32;86.05;101619.66;5031392;28;20041;-40
2021/07/01 10:51:07;;;;;;;14.10;6.60;;;;;;;14.33;86.27;101615.03;5030807;28;20104;-40
2021/07/01 10:53:34;;;;;;;13.85;6.78;;;;;;;14.35;86.28;101618.38;5047498;28;20032;-40
2021/07/01 10:56:58;;;;;;;10.55;6.00;;;;;;;14.30;86.78;101610.06;5073343;28;20090;-40
2021/07/01 10:59:16;;;;;;;10.85;5.88;;;;;;;14.33;85.92;101618.59;5071481;28;20475;-40
2021/07/01 11:01:44;;;;;;;11.60;6.30;;;;;;;14.32;85.92;101621.56;5073353;28;20025;-40
2021/07/01 11:04:14;;;;;;;12.18;6.45;;;;;;;14.36;86.17;101620.84;5072612;28;20024;-40
2021/07/01 11:06:41;;;;;;;14.13;6.10;;;;;;;14.34;85.42;101619.41;5073192;28;20097;-40
2021/07/01 11:09:10;;;;;;;12.90;6.57;;;;;;;14.39;86.03;101620.34;5071606;28;20131;-40
2021/07/01 11:11:37;;;;;;;10.05;5.82;;;;;;;14.39;85.27;101614.91;5073719;28;20032;-40
2021/07/01 11:14:06;;;;;;;12.40;5.90;;;;;;;14.47;85.26;101616.47;5076882;28;20048;-39
2021/07/01 11:16:41;;;;;;;18.05;6.72;;;;;;;14.54;85.20;101624.50;5076272;28;20127;-40